Terminal Aerodrome Forecast
Issued by NWS

Home | Current Version | Previous Version | Text Only | Print | Product List | Glossary On
Versions: 1 2 3 4 5 6 7 8 9 10 11 12 13 14 15
000
FTUS45 KSLC 240533
TAF36U
TAF
K36U 240533Z 2406/2506 VRB04KT P6SM SCT100 BKN160
     FM241600 22006KT P6SM SCT100 BKN150
     FM242200 28007KT P6SM VCSH SCT100 BKN120
     FM250400 18007KT P6SM VCSH SCT080 BKN120=

USA.gov is the U.S. government's official web portal to all federal, state and local government web resources and services.